createdAt,value
2022-08-27T00:00:58.063Z,151001.75
2022-08-27T00:02:01.095Z,151007.91
2022-08-27T00:03:03.521Z,150993.22
2022-08-27T00:04:05.777Z,150959.03
2022-08-27T00:05:08.786Z,150973.66
2022-08-27T00:06:15.518Z,151083.56
2022-08-27T00:07:19.678Z,151007.91
2022-08-27T00:08:22.001Z,150998.09
2022-08-27T00:09:26.972Z,150978.59
2022-08-27T00:10:29.635Z,150934.63
2022-08-27T00:11:31.886Z,150926.09
2022-08-27T00:12:35.341Z,150910.19
2022-08-27T00:13:38.735Z,150988.34
2022-08-27T00:14:41.473Z,150950.50
2022-08-27T00:15:44.348Z,150981.03
2022-08-27T00:16:46.653Z,150939.50
2022-08-27T00:17:48.943Z,150983.47
2022-08-27T00:18:51.202Z,150982.25
2022-08-27T00:19:53.391Z,150972.44
2022-08-27T00:20:55.593Z,150961.47
2022-08-27T00:21:58.065Z,150998.09
2022-08-27T00:23:00.891Z,151007.91
2022-08-27T00:24:03.335Z,150990.78
2022-08-27T00:25:05.824Z,150993.22
2022-08-27T00:26:08.570Z,150971.22
2022-08-27T00:27:12.382Z,150982.25
2022-08-27T00:28:15.284Z,150902.84
2022-08-27T00:29:17.813Z,150924.88
2022-08-27T00:30:22.623Z,150984.69
2022-08-27T00:31:27.513Z,150977.38
2022-08-27T00:32:29.945Z,150933.41
2022-08-27T00:33:32.260Z,150983.47
2022-08-27T00:34:34.724Z,150998.09
2022-08-27T00:35:37.686Z,150915.06
2022-08-27T00:36:40.510Z,150897.97
2022-08-27T00:37:43.601Z,150950.50
2022-08-27T00:38:45.847Z,150905.28
2022-08-27T00:39:48.228Z,150904.06
2022-08-27T00:40:51.420Z,150950.50
2022-08-27T00:41:53.688Z,150863.78
2022-08-27T00:42:55.941Z,150849.16
2022-08-27T00:44:00.227Z,150918.78
2022-08-27T00:45:02.553Z,150906.50
2022-08-27T00:46:14.385Z,151006.63
2022-08-27T00:47:22.987Z,150995.66
2022-08-27T00:48:29.999Z,150946.84
2022-08-27T00:49:41.697Z,150968.78
2022-08-27T00:50:49.668Z,150998.09
2022-08-27T00:52:17.318Z,151012.78
2022-08-27T00:53:23.551Z,150911.41
2022-08-27T00:54:28.110Z,150868.66
2022-08-27T00:55:35.932Z,150988.34
2022-08-27T00:56:44.442Z,150961.47
2022-08-27T00:58:07.467Z,150992.00
2022-08-27T00:59:12.669Z,150937.06
2022-08-27T01:00:16.997Z,150934.63
2022-08-27T01:01:22.924Z,150965.13
2022-08-27T01:02:29.504Z,150929.75
2022-08-27T01:03:32.875Z,150927.31
2022-08-27T01:04:38.363Z,150959.03
2022-08-27T01:05:42.290Z,150929.75
2022-08-27T01:06:44.520Z,150844.28
2022-08-27T01:07:50.274Z,150923.66
2022-08-27T01:08:59.101Z,150954.16
2022-08-27T01:10:02.793Z,150954.16
2022-08-27T01:11:05.763Z,150897.97
2022-08-27T01:12:08.581Z,150883.34
2022-08-27T01:13:14.643Z,150954.16
2022-08-27T01:14:19.261Z,150983.47
2022-08-27T01:15:24.427Z,151022.53
2022-08-27T01:16:32.732Z,151049.38
2022-08-27T01:17:38.606Z,150972.44
2022-08-27T01:18:40.861Z,150932.19
2022-08-27T01:19:51.446Z,151020.09
2022-08-27T01:21:26.949Z,150952.94
2022-08-27T01:22:37.902Z,150895.53
2022-08-27T01:23:58.068Z,150990.78
2022-08-27T01:25:06.076Z,150951.72
2022-08-27T01:26:10.151Z,150983.47
2022-08-27T01:27:18.826Z,150920.00
2022-08-27T01:28:23.678Z,150854.03
2022-08-27T01:29:31.820Z,150775.91
2022-08-27T01:30:34.082Z,150834.50
2022-08-27T01:31:36.384Z,150871.09
2022-08-27T01:32:39.934Z,150941.97
2022-08-27T01:33:54.841Z,150983.47
2022-08-27T01:34:58.840Z,150856.47
2022-08-27T01:36:01.177Z,150855.25
2022-08-27T01:37:05.935Z,150917.56
2022-08-27T01:38:11.664Z,150897.97
2022-08-27T01:39:23.856Z,150858.91
2022-08-27T01:40:26.159Z,150815.00
2022-08-27T01:41:28.434Z,150906.50
2022-08-27T01:42:38.853Z,150926.09
2022-08-27T01:43:41.026Z,150877.25
2022-08-27T01:44:53.014Z,150996.88
2022-08-27T01:45:55.269Z,150935.84
2022-08-27T01:46:58.120Z,150944.41
2022-08-27T01:48:01.405Z,150744.22
2022-08-27T01:49:03.871Z,150815.00
2022-08-27T01:50:09.611Z,150924.88
2022-08-27T01:51:12.130Z,150854.03
2022-08-27T01:52:17.352Z,150900.41
2022-08-27T01:53:23.226Z,150943.19
2022-08-27T01:54:25.459Z,150873.53
2022-08-27T01:55:28.026Z,150793.00
2022-08-27T01:56:30.271Z,150780.81
2022-08-27T01:57:32.979Z,150832.06
2022-08-27T01:58:35.377Z,150822.31
2022-08-27T01:59:39.799Z,150905.28
2022-08-27T02:00:45.169Z,150915.06
2022-08-27T02:01:47.588Z,150863.78
2022-08-27T02:02:50.143Z,150790.56
2022-08-27T02:03:52.401Z,150741.69
2022-08-27T02:04:54.741Z,150819.88
2022-08-27T02:05:57.102Z,150825.97
2022-08-27T02:07:00.221Z,150808.84
2022-08-27T02:08:02.577Z,150873.53
2022-08-27T02:09:05.924Z,150860.13
2022-08-27T02:10:10.474Z,150916.28
2022-08-27T02:11:12.844Z,150838.16
2022-08-27T02:12:15.106Z,150873.53
2022-08-27T02:13:18.096Z,150888.22
2022-08-27T02:14:20.905Z,150877.25
2022-08-27T02:15:24.696Z,150904.06
2022-08-27T02:16:27.029Z,150862.56
2022-08-27T02:17:29.286Z,150847.94
2022-08-27T02:18:31.562Z,150844.28
2022-08-27T02:19:33.760Z,150840.59
2022-08-27T02:20:36.500Z,150907.72
2022-08-27T02:21:38.836Z,150861.34
2022-08-27T02:22:41.965Z,150890.66
2022-08-27T02:23:45.442Z,150878.44
2022-08-27T02:24:48.344Z,150883.34
2022-08-27T02:25:51.228Z,150866.22
2022-08-27T02:26:58.395Z,150906.50
2022-08-27T02:28:01.177Z,150897.97
2022-08-27T02:29:04.209Z,150895.53
2022-08-27T02:30:07.820Z,150878.44
2022-08-27T02:31:10.478Z,150878.44
2022-08-27T02:32:23.884Z,150851.59
2022-08-27T02:33:34.870Z,150856.47
2022-08-27T02:34:38.169Z,150818.66
2022-08-27T02:35:43.841Z,150882.13
2022-08-27T02:36:47.559Z,150840.59
2022-08-27T02:37:50.199Z,150835.72
2022-08-27T02:38:52.478Z,150863.78
2022-08-27T02:39:54.769Z,150836.94
2022-08-27T02:40:57.039Z,150822.31
2022-08-27T02:41:59.476Z,150874.75
2022-08-27T02:43:01.797Z,150877.25
2022-08-27T02:44:05.616Z,150895.53
2022-08-27T02:45:14.400Z,150886.97
2022-08-27T02:46:16.979Z,150780.81
2022-08-27T02:47:19.380Z,150811.34
2022-08-27T02:48:21.765Z,150865.00
2022-08-27T02:49:24.561Z,150863.78
2022-08-27T02:50:27.660Z,150868.66
2022-08-27T02:51:30.361Z,150858.91
2022-08-27T02:52:33.041Z,150879.69
2022-08-27T02:53:37.805Z,150885.78
2022-08-27T02:54:40.614Z,150832.06
2022-08-27T02:55:42.879Z,150790.56
2022-08-27T02:56:45.101Z,150827.19
2022-08-27T02:57:47.329Z,150803.97
2022-08-27T02:58:49.911Z,150874.75
2022-08-27T02:59:53.176Z,150896.75
2022-08-27T03:00:56.885Z,150811.34
2022-08-27T03:01:59.558Z,150836.94
2022-08-27T03:03:02.256Z,150862.56
2022-08-27T03:04:04.601Z,150897.97
2022-08-27T03:05:08.153Z,150941.97
2022-08-27T03:06:10.417Z,150907.72
2022-08-27T03:07:14.232Z,150900.41
2022-08-27T03:08:21.398Z,150902.84
2022-08-27T03:09:23.733Z,150897.97
2022-08-27T03:10:25.979Z,150895.53
2022-08-27T03:11:28.252Z,150915.06
2022-08-27T03:12:30.536Z,150886.97
2022-08-27T03:13:36.736Z,150963.91
2022-08-27T03:14:38.981Z,150763.72
2022-08-27T03:15:41.273Z,150680.75
2022-08-27T03:16:43.486Z,150752.75
2022-08-27T03:18:05.272Z,150805.19
2022-08-27T03:19:07.961Z,150834.50
2022-08-27T03:20:12.432Z,150861.34
2022-08-27T03:21:24.153Z,150905.28
2022-08-27T03:22:27.024Z,150780.81
2022-08-27T03:23:35.173Z,150891.88
2022-08-27T03:24:37.388Z,150818.66
2022-08-27T03:25:51.380Z,150902.84
2022-08-27T03:26:54.216Z,150822.31
2022-08-27T03:27:56.449Z,150773.47
2022-08-27T03:28:59.555Z,150728.28
2022-08-27T03:30:05.102Z,150813.78
2022-08-27T03:31:13.750Z,150746.66
2022-08-27T03:32:16.045Z,150712.47
2022-08-27T03:33:19.902Z,150729.53
2022-08-27T03:34:22.727Z,150735.59
2022-08-27T03:35:25.164Z,150742.91
2022-08-27T03:36:29.929Z,150778.41
2022-08-27T03:37:32.145Z,150788.13
2022-08-27T03:38:35.848Z,150822.31
2022-08-27T03:39:38.111Z,150815.00
2022-08-27T03:40:40.664Z,150824.75
2022-08-27T03:41:54.093Z,150790.56
2022-08-27T03:42:58.396Z,150736.81
2022-08-27T03:44:01.677Z,150775.91
2022-08-27T03:45:04.559Z,150806.41
2022-08-27T03:46:10.361Z,150829.63
2022-08-27T03:47:12.693Z,150771.03
2022-08-27T03:48:14.985Z,150797.88
2022-08-27T03:49:20.505Z,150805.19
2022-08-27T03:50:23.924Z,150761.28
2022-08-27T03:51:26.128Z,150709.97
2022-08-27T03:52:29.322Z,150695.38
2022-08-27T03:53:31.547Z,150662.44
2022-08-27T03:54:38.041Z,150750.31
2022-08-27T03:55:42.580Z,150708.75
2022-08-27T03:56:45.033Z,150620.97
2022-08-27T03:57:47.272Z,150669.72
2022-08-27T03:58:49.661Z,150692.91
2022-08-27T03:59:54.298Z,150738.03
2022-08-27T04:00:56.714Z,150772.25
2022-08-27T04:01:59.417Z,150773.47
2022-08-27T04:03:02.217Z,150778.41
2022-08-27T04:04:04.539Z,150753.97
2022-08-27T04:05:07.727Z,150758.84
2022-08-27T04:06:10.056Z,150740.47
2022-08-27T04:07:12.263Z,150729.53
2022-08-27T04:08:14.482Z,150719.78
2022-08-27T04:09:17.586Z,150700.22
2022-08-27T04:10:20.293Z,150736.81
2022-08-27T04:11:22.597Z,150712.47
2022-08-27T04:12:26.614Z,150677.03
2022-08-27T04:13:28.833Z,150729.53
2022-08-27T04:14:31.042Z,150711.25
2022-08-27T04:15:33.406Z,150751.53
2022-08-27T04:16:36.682Z,150753.97
2022-08-27T04:17:39.970Z,150773.47
2022-08-27T04:18:42.292Z,150651.47
2022-08-27T04:19:44.537Z,150666.06
2022-08-27T04:20:48.272Z,150695.38
2022-08-27T04:21:51.000Z,150611.16
2022-08-27T04:22:53.249Z,150592.91
2022-08-27T04:23:58.722Z,150656.34
2022-08-27T04:25:02.962Z,150669.72
2022-08-27T04:26:09.586Z,150666.06
2022-08-27T04:27:11.883Z,150642.88
2022-08-27T04:28:15.916Z,150728.28
2022-08-27T04:29:18.126Z,150664.84
2022-08-27T04:30:20.377Z,150678.25
2022-08-27T04:31:22.924Z,150680.75
2022-08-27T04:32:27.381Z,150677.03
2022-08-27T04:33:34.425Z,150683.19
2022-08-27T04:34:37.077Z,150684.41
2022-08-27T04:35:39.922Z,150708.75
2022-08-27T04:36:42.148Z,150727.09
2022-08-27T04:37:44.430Z,150699.00
2022-08-27T04:38:47.250Z,150728.28
2022-08-27T04:39:50.646Z,150728.28
2022-08-27T04:41:11.673Z,150717.34
2022-08-27T04:42:13.909Z,150707.53
2022-08-27T04:43:17.649Z,150663.63
2022-08-27T04:44:20.115Z,150653.91
2022-08-27T04:45:22.313Z,150585.59
2022-08-27T04:46:29.032Z,150725.88
2022-08-27T04:47:31.445Z,150697.78
2022-08-27T04:48:33.808Z,150666.06
2022-08-27T04:49:36.658Z,150696.56
2022-08-27T04:50:43.164Z,150808.84
2022-08-27T04:51:45.780Z,150711.25
2022-08-27T04:52:48.070Z,150727.09
2022-08-27T04:53:52.445Z,150758.84
2022-08-27T04:54:55.439Z,150734.38
2022-08-27T04:55:57.944Z,150727.09
2022-08-27T04:57:02.829Z,150733.19
2022-08-27T04:58:05.042Z,150697.78
2022-08-27T04:59:10.088Z,150775.91
2022-08-27T05:00:12.953Z,150799.09
2022-08-27T05:01:17.488Z,150821.09
2022-08-27T05:02:19.782Z,150767.38
2022-08-27T05:03:24.163Z,150824.75
2022-08-27T05:04:26.706Z,150769.81
2022-08-27T05:05:29.037Z,150686.84
2022-08-27T05:06:31.460Z,150714.91
2022-08-27T05:07:33.677Z,150746.66
2022-08-27T05:08:35.920Z,150769.81
2022-08-27T05:09:38.752Z,150711.25
2022-08-27T05:10:43.202Z,150780.81
2022-08-27T05:11:47.088Z,150670.94
2022-08-27T05:12:50.646Z,150684.41
2022-08-27T05:13:52.952Z,150746.66
2022-08-27T05:14:55.194Z,150692.91
2022-08-27T05:16:03.939Z,150760.06
2022-08-27T05:17:06.512Z,150705.09
2022-08-27T05:18:09.318Z,150735.59
2022-08-27T05:19:14.715Z,150747.88
2022-08-27T05:20:17.048Z,150736.81
2022-08-27T05:21:22.667Z,150744.22
2022-08-27T05:22:25.273Z,150728.28
2022-08-27T05:23:30.253Z,150767.38
2022-08-27T05:24:32.606Z,150766.16
2022-08-27T05:25:39.642Z,150835.72
2022-08-27T05:26:41.990Z,150771.03
2022-08-27T05:27:44.659Z,150778.41
2022-08-27T05:28:46.994Z,150757.63
2022-08-27T05:29:49.207Z,150724.66
2022-08-27T05:30:55.444Z,150812.56
2022-08-27T05:31:58.005Z,150730.75
2022-08-27T05:33:00.581Z,150724.66
2022-08-27T05:34:03.691Z,150788.13
2022-08-27T05:35:15.594Z,150778.41
2022-08-27T05:36:21.827Z,150856.47
2022-08-27T05:37:24.110Z,150752.75
2022-08-27T05:38:29.401Z,150850.38
2022-08-27T05:39:31.632Z,150817.44
2022-08-27T05:40:34.163Z,150822.31
2022-08-27T05:41:36.495Z,150812.56
2022-08-27T05:42:38.724Z,150824.75
2022-08-27T05:43:45.383Z,150866.22
2022-08-27T05:44:50.476Z,150861.34
2022-08-27T05:45:52.729Z,150849.16
2022-08-27T05:46:55.039Z,150815.00
2022-08-27T05:47:58.633Z,150843.06
2022-08-27T05:49:01.828Z,150813.78
2022-08-27T05:50:04.462Z,150858.91
2022-08-27T05:51:16.259Z,150934.63
2022-08-27T05:52:27.745Z,150786.91
2022-08-27T05:53:30.341Z,150738.03
2022-08-27T05:54:32.623Z,150793.00
2022-08-27T05:55:45.041Z,150868.66
2022-08-27T05:56:49.951Z,150788.13
2022-08-27T05:57:52.292Z,150747.88
2022-08-27T05:59:13.016Z,150819.88
2022-08-27T06:00:34.177Z,150802.75
2022-08-27T06:01:39.377Z,150843.06
2022-08-27T06:02:41.681Z,150768.59
2022-08-27T06:03:44.802Z,150824.75
2022-08-27T06:04:47.612Z,150800.31
2022-08-27T06:05:49.895Z,150834.50
2022-08-27T06:06:52.762Z,150893.06
2022-08-27T06:07:55.012Z,150876.03
2022-08-27T06:08:57.411Z,150805.19
2022-08-27T06:10:00.188Z,150824.75
2022-08-27T06:11:05.312Z,150908.97
2022-08-27T06:12:08.280Z,150868.66
2022-08-27T06:13:10.569Z,150840.59
2022-08-27T06:14:12.850Z,150876.03
2022-08-27T06:15:15.097Z,150917.56
2022-08-27T06:16:19.643Z,150937.06
2022-08-27T06:17:22.024Z,150857.69
2022-08-27T06:18:24.210Z,150900.41
2022-08-27T06:19:26.736Z,150886.97
2022-08-27T06:20:28.962Z,150910.19
2022-08-27T06:21:31.216Z,150967.56
2022-08-27T06:22:33.791Z,151007.91
2022-08-27T06:23:36.674Z,151007.91
2022-08-27T06:24:41.156Z,151027.41
2022-08-27T06:25:43.368Z,150897.97
2022-08-27T06:26:45.801Z,150930.97
2022-08-27T06:27:48.049Z,150968.78
2022-08-27T06:28:50.690Z,150873.53
2022-08-27T06:29:52.948Z,150891.88
2022-08-27T06:31:11.266Z,151029.84
2022-08-27T06:32:14.868Z,150979.81
2022-08-27T06:33:17.387Z,150935.84
2022-08-27T06:34:19.783Z,150924.88
2022-08-27T06:35:21.992Z,150944.41
2022-08-27T06:36:25.792Z,150999.31
2022-08-27T06:37:31.005Z,150998.09
2022-08-27T06:38:34.436Z,150943.19
2022-08-27T06:39:38.254Z,151037.16
2022-08-27T06:40:42.117Z,151070.13
2022-08-27T06:41:44.763Z,151046.94
2022-08-27T06:42:47.593Z,151005.41
2022-08-27T06:43:51.947Z,151077.47
2022-08-27T06:44:54.555Z,151103.13
2022-08-27T06:45:56.800Z,151077.47
2022-08-27T06:46:59.696Z,151180.09
2022-08-27T06:48:01.898Z,151176.44
2022-08-27T06:49:04.482Z,151269.28
2022-08-27T06:50:07.034Z,151241.16
2022-08-27T06:51:19.737Z,151305.97
2022-08-27T06:52:21.947Z,151309.63
2022-08-27T06:53:24.586Z,151301.03
2022-08-27T06:54:26.913Z,151353.59
2022-08-27T06:55:29.145Z,151402.47
2022-08-27T06:56:31.689Z,151430.59
2022-08-27T06:57:33.924Z,151450.16
2022-08-27T06:58:36.292Z,151451.38
2022-08-27T06:59:39.515Z,151485.59
2022-08-27T07:00:48.419Z,151495.34
2022-08-27T07:01:51.635Z,151369.50
2022-08-27T07:02:54.328Z,151349.91
2022-08-27T07:03:58.533Z,151374.38
2022-08-27T07:05:00.725Z,151385.34
2022-08-27T07:06:06.535Z,151474.59
2022-08-27T07:07:13.051Z,151495.34
2022-08-27T07:08:15.289Z,151477.06
2022-08-27T07:09:20.603Z,151425.72
2022-08-27T07:10:23.230Z,151436.72
2022-08-27T07:11:26.901Z,151511.25
2022-08-27T07:12:30.676Z,151401.22
2022-08-27T07:13:33.211Z,151516.16
2022-08-27T07:14:38.056Z,151479.50
2022-08-27T07:15:41.836Z,151573.66
2022-08-27T07:16:45.304Z,151662.84
2022-08-27T07:17:50.617Z,151714.22
2022-08-27T07:18:56.042Z,151851.22
2022-08-27T07:19:58.325Z,151824.31
2022-08-27T07:21:01.176Z,151802.31
2022-08-27T07:22:03.515Z,151717.88
2022-08-27T07:23:09.418Z,151680.00
2022-08-27T07:24:13.537Z,151540.59
2022-08-27T07:25:20.333Z,151653.09
2022-08-27T07:26:23.607Z,151628.63
2022-08-27T07:27:25.785Z,151682.44
2022-08-27T07:28:28.478Z,151655.53
2022-08-27T07:29:32.369Z,151664.06
2022-08-27T07:30:34.991Z,151612.75
2022-08-27T07:31:38.878Z,151683.66
2022-08-27T07:32:41.932Z,151616.41
2022-08-27T07:33:51.563Z,151483.16
2022-08-27T07:34:55.445Z,151483.16
2022-08-27T07:35:57.707Z,151447.72
2022-08-27T07:36:59.911Z,151362.13
2022-08-27T07:38:02.136Z,151411.00
2022-08-27T07:39:05.461Z,151477.06
2022-08-27T07:40:12.042Z,151398.78
2022-08-27T07:41:16.164Z,151426.94
2022-08-27T07:42:36.648Z,151496.56
2022-08-27T07:43:57.886Z,151555.25
2022-08-27T07:45:00.182Z,151541.81
2022-08-27T07:46:05.519Z,151648.22
2022-08-27T07:47:08.218Z,151649.44
2022-08-27T07:48:10.588Z,151516.16
2022-08-27T07:49:12.957Z,151516.16
2022-08-27T07:50:15.180Z,151580.97
2022-08-27T07:51:20.673Z,151648.22
2022-08-27T07:52:26.397Z,151550.38
2022-08-27T07:53:29.035Z,151519.81
2022-08-27T07:54:31.349Z,151582.19
2022-08-27T07:55:36.561Z,151640.88
2022-08-27T07:56:38.952Z,151570.00
2022-08-27T07:57:42.038Z,151631.06
2022-08-27T07:58:44.776Z,151645.75
2022-08-27T07:59:48.356Z,151681.22
2022-08-27T08:00:50.584Z,151768.09
2022-08-27T08:01:53.418Z,151781.53
2022-08-27T08:02:55.941Z,151861.00
2022-08-27T08:03:58.205Z,151865.94
2022-08-27T08:05:00.653Z,151819.41
2022-08-27T08:06:09.748Z,151772.97
2022-08-27T08:07:12.491Z,151728.91
2022-08-27T08:08:15.498Z,151775.41
2022-08-27T08:09:17.800Z,151694.66
2022-08-27T08:10:22.361Z,151743.63
2022-08-27T08:11:24.595Z,151816.97
2022-08-27T08:12:27.076Z,151854.88
2022-08-27T08:13:30.364Z,151875.75
2022-08-27T08:14:32.645Z,151812.09
2022-08-27T08:15:35.904Z,151780.31
2022-08-27T08:16:38.170Z,151804.78
2022-08-27T08:17:40.574Z,151876.97
2022-08-27T08:18:43.260Z,151932.03
2022-08-27T08:20:02.508Z,151946.69
2022-08-27T08:21:11.399Z,152087.41
2022-08-27T08:22:14.246Z,151899.00
2022-08-27T08:23:16.588Z,151995.63
2022-08-27T08:24:18.802Z,152029.94
2022-08-27T08:25:21.892Z,151945.44
2022-08-27T08:26:24.189Z,151988.25
2022-08-27T08:27:26.509Z,152038.47
2022-08-27T08:28:30.243Z,151998.06
2022-08-27T08:29:32.483Z,151976.03
2022-08-27T08:30:35.585Z,151873.31
2022-08-27T08:31:38.045Z,151873.31
2022-08-27T08:32:40.311Z,151787.63
2022-08-27T08:33:42.554Z,151792.50
2022-08-27T08:34:44.781Z,151775.41
2022-08-27T08:35:49.024Z,151743.63
2022-08-27T08:36:54.880Z,151768.09
2022-08-27T08:37:57.517Z,151803.56
2022-08-27T08:38:59.856Z,151809.66
2022-08-27T08:40:02.955Z,151761.94
2022-08-27T08:41:07.074Z,151673.88
2022-08-27T08:42:38.652Z,151814.53
2022-08-27T08:43:51.846Z,151809.66
2022-08-27T08:44:56.810Z,151823.09
2022-08-27T08:46:17.368Z,151816.97
2022-08-27T08:47:30.217Z,151797.41
2022-08-27T08:48:32.549Z,151720.38
2022-08-27T08:49:44.573Z,151887.97
2022-08-27T08:51:19.165Z,151821.88
2022-08-27T08:52:40.482Z,151826.75
2022-08-27T08:53:57.554Z,151716.66
2022-08-27T08:55:21.897Z,151783.97
2022-08-27T08:56:54.832Z,151708.13
2022-08-27T08:58:13.306Z,151670.22
2022-08-27T08:59:29.897Z,151721.59
2022-08-27T09:00:32.763Z,151702.00
2022-08-27T09:01:35.385Z,151714.22
2022-08-27T09:02:38.004Z,151690.97
2022-08-27T09:03:44.388Z,151848.78
2022-08-27T09:04:46.631Z,151777.84
2022-08-27T09:06:02.521Z,151895.28
2022-08-27T09:07:12.975Z,151786.41
2022-08-27T09:08:41.573Z,151766.88
2022-08-27T09:09:57.629Z,151824.31
2022-08-27T09:11:25.717Z,151907.53
2022-08-27T09:12:32.475Z,151867.16
2022-08-27T09:13:42.491Z,151966.28
2022-08-27T09:15:18.818Z,151968.72
2022-08-27T09:16:21.220Z,151897.78
2022-08-27T09:17:23.864Z,151836.56
2022-08-27T09:18:28.223Z,151824.31
2022-08-27T09:19:30.653Z,151809.66
2022-08-27T09:20:36.517Z,151922.19
2022-08-27T09:21:49.507Z,151946.69
2022-08-27T09:23:04.996Z,151897.78
2022-08-27T09:24:27.334Z,151965.03
2022-08-27T09:25:34.460Z,151780.31
2022-08-27T09:26:40.988Z,151814.53
2022-08-27T09:27:43.696Z,151792.50
2022-08-27T09:29:04.599Z,151677.56
2022-08-27T09:30:09.352Z,151790.06
2022-08-27T09:31:20.722Z,151711.78
2022-08-27T09:32:25.896Z,151699.56
2022-08-27T09:33:28.205Z,151636.00
2022-08-27T09:34:46.971Z,151768.09
2022-08-27T09:35:51.166Z,151865.94
2022-08-27T09:37:06.249Z,152025.00
2022-08-27T09:38:09.853Z,151999.28
2022-08-27T09:39:13.714Z,151979.72
2022-08-27T09:40:28.121Z,152031.16
2022-08-27T09:41:36.306Z,152005.41
2022-08-27T09:42:43.811Z,152007.84
2022-08-27T09:44:23.105Z,152132.72
2022-08-27T09:45:29.402Z,152078.84
2022-08-27T09:46:31.657Z,151990.69
2022-08-27T09:47:49.789Z,151990.69
2022-08-27T09:48:52.670Z,151980.94
2022-08-27T09:50:07.785Z,151930.78
2022-08-27T09:51:14.431Z,151839.00
2022-08-27T09:52:39.229Z,151804.78
2022-08-27T09:53:53.178Z,151732.63
2022-08-27T09:54:56.608Z,151750.94
2022-08-27T09:56:07.766Z,151780.31
2022-08-27T09:57:13.991Z,151775.41
2022-08-27T09:58:29.690Z,151790.06
2022-08-27T09:59:36.977Z,151766.88
2022-08-27T10:00:41.157Z,151736.28
2022-08-27T10:01:53.931Z,151757.06
2022-08-27T10:03:02.957Z,151787.63
2022-08-27T10:04:12.625Z,151851.22
2022-08-27T10:05:29.285Z,151836.56
2022-08-27T10:06:32.926Z,151894.06
2022-08-27T10:07:47.195Z,151873.31
2022-08-27T10:08:54.715Z,151746.06
2022-08-27T10:10:03.854Z,151716.66
2022-08-27T10:11:18.477Z,151841.44
2022-08-27T10:12:58.577Z,152022.56
2022-08-27T10:14:13.437Z,152072.75
2022-08-27T10:15:16.078Z,151993.16
2022-08-27T10:16:47.424Z,151996.84
2022-08-27T10:17:52.533Z,152011.50
2022-08-27T10:19:14.702Z,152201.28
2022-08-27T10:20:40.942Z,152182.91
2022-08-27T10:21:47.084Z,152073.97
2022-08-27T10:23:13.695Z,152051.94
2022-08-27T10:24:37.456Z,152162.13
2022-08-27T10:25:48.421Z,152146.16
2022-08-27T10:27:14.098Z,152056.81
2022-08-27T10:28:41.125Z,152039.72
2022-08-27T10:30:07.574Z,152108.22
2022-08-27T10:31:25.358Z,152129.03
2022-08-27T10:32:52.162Z,152120.44
2022-08-27T10:34:14.302Z,152147.38
2022-08-27T10:35:54.632Z,152215.94
2022-08-27T10:37:15.416Z,152142.47
2022-08-27T10:38:30.189Z,152328.63
2022-08-27T10:39:51.256Z,152563.78
2022-08-27T10:41:33.652Z,152761.09
2022-08-27T10:42:46.173Z,152784.34
2022-08-27T10:44:06.530Z,152669.16
2022-08-27T10:45:35.418Z,152745.13
2022-08-27T10:46:56.635Z,152759.88
2022-08-27T10:48:09.237Z,152789.28
2022-08-27T10:49:33.130Z,152769.66
2022-08-27T10:50:55.232Z,152731.69
2022-08-27T10:52:16.850Z,152536.81
2022-08-27T10:53:21.709Z,152514.75
2022-08-27T10:54:38.661Z,152599.34
2022-08-27T10:55:45.913Z,152625.06
2022-08-27T10:57:14.385Z,152644.63
2022-08-27T10:58:24.835Z,152756.19
2022-08-27T10:59:53.800Z,152656.91
2022-08-27T11:01:17.996Z,152769.66
2022-08-27T11:02:44.788Z,152735.34
2022-08-27T11:04:03.239Z,152651.97
2022-08-27T11:05:19.533Z,152626.28
2022-08-27T11:06:39.467Z,152563.78
2022-08-27T11:07:47.548Z,152691.22
2022-08-27T11:08:57.118Z,152697.34
2022-08-27T11:10:04.606Z,152584.63
2022-08-27T11:11:51.757Z,152375.13
2022-08-27T11:12:39.977Z,152362.91
2022-08-27T11:13:51.616Z,152626.28
2022-08-27T11:15:08.849Z,152696.09
2022-08-27T11:16:23.248Z,152884.84
2022-08-27T11:17:34.294Z,153061.44
2022-08-27T11:18:58.301Z,153040.56
2022-08-27T11:20:08.569Z,153108.03
2022-08-27T11:21:36.639Z,153100.69
2022-08-27T11:22:49.096Z,153190.22
2022-08-27T11:24:22.411Z,153574.25
2022-08-27T11:25:38.673Z,153384.09
2022-08-27T11:26:42.404Z,153461.38
2022-08-27T11:27:47.885Z,153505.53
2022-08-27T11:29:02.199Z,153512.91
2022-08-27T11:30:04.739Z,153532.53
2022-08-27T11:31:16.100Z,153751.06
2022-08-27T11:32:50.012Z,153449.09
2022-08-27T11:34:08.017Z,153414.72
2022-08-27T11:35:19.080Z,153476.09
2022-08-27T11:36:54.655Z,153245.41
2022-08-27T11:38:12.082Z,153347.25
2022-08-27T11:39:17.417Z,153228.25
2022-08-27T11:40:42.227Z,153343.56
2022-08-27T11:41:50.265Z,153391.44
2022-08-27T11:42:58.417Z,153478.53
2022-08-27T11:44:01.139Z,153314.09
2022-08-27T11:45:29.736Z,152784.34
2022-08-27T11:46:46.934Z,152622.63
2022-08-27T11:47:54.412Z,152919.16
2022-08-27T11:49:00.006Z,152859.16
2022-08-27T11:50:08.889Z,152949.81
2022-08-27T11:51:18.589Z,152870.19
2022-08-27T11:52:30.034Z,153056.53
2022-08-27T11:53:51.893Z,153218.47
2022-08-27T11:55:24.077Z,153501.88
2022-08-27T11:56:39.726Z,153807.50
2022-08-27T11:57:42.893Z,153628.28
2022-08-27T11:58:52.779Z,153603.75
2022-08-27T11:59:55.965Z,153544.78
2022-08-27T12:01:00.984Z,153392.66
2022-08-27T12:02:23.003Z,153643.00
2022-08-27T12:03:30.292Z,153758.44
2022-08-27T12:04:39.186Z,154055.66
2022-08-27T12:05:45.644Z,154190.81
2022-08-27T12:07:00.231Z,154076.50
2022-08-27T12:08:21.910Z,154031.06
2022-08-27T12:09:24.797Z,153677.34
2022-08-27T12:10:42.496Z,153530.09
2022-08-27T12:12:00.816Z,153893.50
2022-08-27T12:13:21.301Z,153832.13
2022-08-27T12:14:43.478Z,154147.78
2022-08-27T12:15:49.807Z,154431.66
2022-08-27T12:17:28.307Z,154385.00
2022-08-27T12:18:48.536Z,154271.91
2022-08-27T12:20:41.752Z,154290.34
2022-08-27T12:21:43.905Z,153920.53
2022-08-27T12:23:04.495Z,153860.34
2022-08-27T12:24:06.576Z,154231.31
2022-08-27T12:25:20.991Z,154166.22
2022-08-27T12:26:26.317Z,154360.38
2022-08-27T12:27:36.986Z,154365.25
2022-08-27T12:28:39.204Z,154264.53
2022-08-27T12:30:00.321Z,154187.13
2022-08-27T12:31:06.573Z,153997.91
2022-08-27T12:32:37.823Z,153995.44
2022-08-27T12:33:44.134Z,153927.88
2022-08-27T12:35:13.980Z,154028.59
2022-08-27T12:36:27.966Z,154006.47
2022-08-27T12:37:36.278Z,153854.22
2022-08-27T12:38:50.470Z,153786.66
2022-08-27T12:39:57.646Z,153915.63
2022-08-27T12:41:04.100Z,153743.69
2022-08-27T12:42:15.590Z,154189.56
2022-08-27T12:43:24.863Z,154169.91
2022-08-27T12:44:30.089Z,154416.94
2022-08-27T12:45:32.291Z,154072.84
2022-08-27T12:46:49.660Z,154244.88
2022-08-27T12:47:55.342Z,154323.50